Time;durP1;ratioP1;P1;durP2;ratioP2;P2;SDS_P1;SDS_P2;PMS_P1;PMS_P2;Temp;Humidity;BMP_temperature;BMP_pressure;BME280_temperature;BME280_humidity;BME280_pressure;Samples;Min_cycle;Max_cycle;Signal;HPM_P1;HPM_P2
2023/11/19 00:01:38;;;;;;;1.03;0.80;;;7.10;86.20;;;;;;5078565;28;20241;-82
2023/11/19 00:04:06;;;;;;;0.77;0.77;;;7.20;99.90;;;;;;5078193;28;20233;-83
2023/11/19 00:06:33;;;;;;;0.50;0.50;;;7.20;99.90;;;;;;5077671;28;20226;-82
2023/11/19 00:09:00;;;;;;;0.57;0.57;;;7.20;99.90;;;;;;5077910;28;20270;-82
2023/11/19 00:11:26;;;;;;;0.60;0.60;;;7.20;1.00;;;;;;5077457;28;20309;-80
2023/11/19 00:13:53;;;;;;;0.50;0.50;;;7.20;1.00;;;;;;5065406;28;20211;-82
2023/11/19 00:16:20;;;;;;;1.07;0.97;;;7.30;1.00;;;;;;5058321;28;20718;-81
2023/11/19 00:18:47;;;;;;;1.33;0.80;;;7.30;1.00;;;;;;5058379;28;20203;-82
2023/11/19 00:21:15;;;;;;;0.97;0.90;;;7.30;1.00;;;;;;5057191;28;20210;-81
2023/11/19 00:23:43;;;;;;;0.60;0.60;;;7.30;1.00;;;;;;5057330;28;20306;-82
2023/11/19 00:26:10;;;;;;;1.03;0.97;;;7.30;1.00;;;;;;5071618;28;20214;-83
2023/11/19 00:28:38;;;;;;;0.93;0.83;;;7.30;1.00;;;;;;5077385;28;20233;-82
2023/11/19 00:31:05;;;;;;;0.87;0.87;;;7.30;1.00;;;;;;5077227;28;20276;-82
2023/11/19 00:33:32;;;;;;;0.93;0.93;;;7.30;99.90;;;;;;5077008;28;20673;-82
2023/11/19 00:35:59;;;;;;;0.80;0.80;;;7.30;1.00;;;;;;5064032;28;20714;-81
2023/11/19 00:38:27;;;;;;;0.50;0.50;;;7.40;99.90;;;;;;5074603;28;20234;-82
2023/11/19 00:40:54;;;;;;;0.93;0.93;;;7.40;99.90;;;;;;5077534;28;20206;-82
2023/11/19 00:43:22;;;;;;;1.93;1.13;;;7.40;99.90;;;;;;5077154;28;20230;-83
2023/11/19 00:45:50;;;;;;;0.70;0.70;;;7.50;99.90;;;;;;5077534;28;20213;-83
2023/11/19 00:48:17;;;;;;;0.90;0.90;;;7.50;18.40;;;;;;5061354;28;20844;-83
2023/11/19 00:50:45;;;;;;;0.73;0.73;;;7.50;57.80;;;;;;5057150;28;20209;-83
2023/11/19 00:53:12;;;;;;;0.77;0.77;;;7.50;99.90;;;;;;5057244;28;20253;-83
2023/11/19 00:55:40;;;;;;;1.57;0.80;;;7.50;1.00;;;;;;5065331;28;20203;-82
2023/11/19 00:58:07;;;;;;;0.80;0.77;;;7.50;1.00;;;;;;5057197;28;20699;-82
2023/11/19 01:00:34;;;;;;;0.60;0.60;;;7.60;1.00;;;;;;5056848;28;20203;-82
2023/11/19 01:03:01;;;;;;;0.60;0.60;;;7.60;99.90;;;;;;5070149;28;20218;-82
2023/11/19 01:05:28;;;;;;;0.63;0.63;;;7.60;1.00;;;;;;5077165;28;20206;-81
2023/11/19 01:07:55;;;;;;;1.03;0.90;;;7.60;1.00;;;;;;5077119;28;20314;-82
2023/11/19 01:10:22;;;;;;;0.70;0.60;;;7.70;1.00;;;;;;5075771;28;20293;-82
2023/11/19 01:12:50;;;;;;;0.50;0.50;;;7.60;1.00;;;;;;5075870;28;20554;-82
2023/11/19 01:15:18;;;;;;;0.90;0.70;;;7.60;99.90;;;;;;5076217;28;20204;-82
2023/11/19 01:17:45;;;;;;;0.63;0.63;;;7.50;1.00;;;;;;5076378;28;20229;-82
2023/11/19 01:20:13;;;;;;;0.73;0.60;;;7.60;1.00;;;;;;5076854;28;20202;-82
2023/11/19 01:22:40;;;;;;;1.77;0.90;;;7.70;1.00;;;;;;5076501;28;20317;-82
2023/11/19 01:25:08;;;;;;;1.37;0.57;;;7.60;1.00;;;;;;5076484;28;20214;-82
2023/11/19 01:27:35;;;;;;;0.60;0.60;;;7.60;1.00;;;;;;5076541;28;20578;-81
2023/11/19 01:30:04;;;;;;;0.50;0.50;;;7.60;1.00;;;;;;5071407;28;20238;-82
2023/11/19 01:32:31;;;;;;;0.70;0.70;;;7.70;1.00;;;;;;5053054;28;20290;-81
2023/11/19 01:34:57;;;;;;;1.43;0.57;;;7.70;1.00;;;;;;5056722;28;20203;-83
2023/11/19 01:37:24;;;;;;;0.90;0.87;;;7.70;37.20;;;;;;5056508;28;20226;-82
2023/11/19 01:39:51;;;;;;;0.63;0.63;;;7.80;1.00;;;;;;5056381;28;20205;-81
2023/11/19 01:42:18;;;;;;;0.60;0.60;;;7.80;1.00;;;;;;5056777;28;20218;-81
2023/11/19 01:44:59;;;;;;;0.80;0.80;;;8.00;1.00;;;;;;5056699;28;20290;-81
2023/11/19 01:47:29;;;;;;;0.77;0.77;;;7.90;22.90;;;;;;5055199;28;20226;-82
2023/11/19 01:49:57;;;;;;;0.80;0.60;;;7.90;99.90;;;;;;5056085;28;20193;-82
2023/11/19 01:52:26;;;;;;;0.50;0.50;;;7.90;99.90;;;;;;5054760;28;20203;-82
2023/11/19 01:54:54;;;;;;;0.73;0.73;;;7.90;99.90;;;;;;5066380;28;20206;-82
2023/11/19 01:57:23;;;;;;;0.67;0.67;;;8.00;99.90;;;;;;5073608;28;20228;-82
2023/11/19 01:59:51;;;;;;;0.77;0.77;;;8.00;25.50;;;;;;5074600;28;20579;-82
2023/11/19 02:02:20;;;;;;;0.50;0.50;;;8.00;98.00;;;;;;5074581;28;20222;-81
2023/11/19 02:04:49;;;;;;;0.57;0.57;;;8.10;1.00;;;;;;5072819;28;20205;-81
2023/11/19 02:07:17;;;;;;;0.73;0.70;;;8.10;1.00;;;;;;5074556;28;20751;-82
2023/11/19 02:09:44;;;;;;;0.80;0.80;;;8.10;1.00;;;;;;5075631;28;20202;-82
2023/11/19 02:12:11;;;;;;;1.63;1.10;;;8.10;1.00;;;;;;5075446;28;20214;-81
2023/11/19 02:14:38;;;;;;;0.60;0.60;;;8.10;1.00;;;;;;5074696;28;20721;-81
2023/11/19 02:17:06;;;;;;;1.50;0.97;;;8.10;1.00;;;;;;5076358;28;20328;-81
2023/11/19 02:19:33;;;;;;;0.90;0.70;;;8.10;1.00;;;;;;5076450;28;20202;-82
2023/11/19 02:22:01;;;;;;;1.70;0.67;;;8.10;1.00;;;;;;5071264;28;20270;-81
2023/11/19 02:24:34;;;;;;;1.23;0.77;;;8.10;99.90;;;;;;5055935;28;20207;-81
2023/11/19 02:27:08;;;;;;;2.20;0.70;;;8.10;99.90;;;;;;5055373;28;20230;-81
2023/11/19 02:29:36;;;;;;;1.13;0.83;;;8.00;99.90;;;;;;5055573;28;20184;-82
2023/11/19 02:32:03;;;;;;;1.73;0.60;;;8.10;99.90;;;;;;5055506;28;20195;-82
2023/11/19 02:34:30;;;;;;;2.13;0.70;;;8.10;99.90;;;;;;5055331;28;20620;-82
2023/11/19 02:36:57;;;;;;;2.10;0.70;;;8.10;99.90;;;;;;5055743;28;20226;-82
2023/11/19 02:39:24;;;;;;;0.63;0.60;;;8.10;99.90;;;;;;5055386;28;20199;-81
2023/11/19 02:41:52;;;;;;;0.60;0.60;;;8.10;99.90;;;;;;5055564;28;20207;-81
2023/11/19 02:44:19;;;;;;;0.70;0.70;;;8.10;99.90;;;;;;5056271;28;20219;-82
2023/11/19 02:46:48;;;;;;;0.40;0.40;;;8.10;99.90;;;;;;5059527;28;20227;-81
2023/11/19 02:49:15;;;;;;;0.30;0.30;;;8.10;99.90;;;;;;5058749;28;20206;-82
2023/11/19 02:51:43;;;;;;;1.00;0.40;;;8.20;99.90;;;;;;5060862;28;20214;-82
2023/11/19 02:54:09;;;;;;;0.60;0.60;;;8.20;99.90;;;;;;5079656;28;20209;-83
2023/11/19 02:56:38;;;;;;;0.70;0.70;;;8.30;99.90;;;;;;5077613;28;20238;-82
2023/11/19 02:59:14;;;;;;;0.40;0.40;;;8.30;99.90;;;;;;5057804;28;20234;-82
2023/11/19 03:01:43;;;;;;;0.20;0.20;;;8.40;99.90;;;;;;5059456;28;20187;-82
2023/11/19 03:04:12;;;;;;;0.60;0.50;;;8.40;99.90;;;;;;5058831;28;20223;-82
2023/11/19 03:06:39;;;;;;;0.67;0.67;;;8.40;99.90;;;;;;5058752;28;20226;-81
2023/11/19 03:09:10;;;;;;;0.90;0.90;;;8.40;99.90;;;;;;5058841;28;20211;-82
2023/11/19 03:11:36;;;;;;;0.93;0.53;;;8.50;99.90;;;;;;5058784;28;20265;-82
2023/11/19 03:14:04;;;;;;;1.43;0.40;;;8.50;99.90;;;;;;5064341;28;20574;-81
2023/11/19 03:16:30;;;;;;;0.43;0.40;;;8.50;99.90;;;;;;5079127;28;20226;-81
2023/11/19 03:18:57;;;;;;;0.80;0.70;;;8.60;99.90;;;;;;5079124;28;20285;-80
2023/11/19 03:21:31;;;;;;;3.87;0.90;;;8.60;99.90;;;;;;5079184;28;20289;-81
2023/11/19 03:23:59;;;;;;;0.90;0.70;;;8.70;99.90;;;;;;5078683;28;20210;-82
2023/11/19 03:26:27;;;;;;;0.80;0.67;;;8.70;99.90;;;;;;5078585;28;20190;-82
2023/11/19 03:28:54;;;;;;;1.60;0.70;;;8.70;99.90;;;;;;5078104;28;20204;-82
2023/11/19 03:31:21;;;;;;;0.60;0.60;;;8.80;99.90;;;;;;5079167;28;20616;-82
2023/11/19 03:33:47;;;;;;;1.33;1.10;;;8.80;99.90;;;;;;5078579;28;20220;-82
2023/11/19 03:36:14;;;;;;;0.50;0.50;;;8.90;99.90;;;;;;5078596;28;20214;-82
2023/11/19 03:38:42;;;;;;;0.60;0.60;;;8.90;99.90;;;;;;5075406;28;20202;-81
2023/11/19 03:41:12;;;;;;;0.80;0.77;;;9.00;99.90;;;;;;5063936;28;20194;-82
2023/11/19 03:43:39;;;;;;;0.80;0.80;;;9.00;99.90;;;;;;5064141;28;20219;-82
2023/11/19 03:46:16;;;;;;;1.17;0.80;;;9.10;99.90;;;;;;5057849;28;20671;-82
2023/11/19 03:48:43;;;;;;;0.60;0.50;;;9.00;99.90;;;;;;5058012;28;20187;-82
2023/11/19 03:51:11;;;;;;;0.97;0.87;;;9.10;99.90;;;;;;5057593;28;20298;-81
2023/11/19 03:53:38;;;;;;;0.80;0.80;;;9.10;99.90;;;;;;5059781;28;20222;-82
2023/11/19 03:56:09;;;;;;;1.17;0.80;;;9.10;99.90;;;;;;5070879;28;20207;-82
2023/11/19 03:58:36;;;;;;;0.80;0.80;;;9.10;99.90;;;;;;5056931;28;20203;-82
2023/11/19 04:01:02;;;;;;;0.80;0.80;;;9.20;99.90;;;;;;5057937;28;20203;-82
2023/11/19 04:03:29;;;;;;;0.70;0.70;;;9.30;99.90;;;;;;5057577;28;20227;-82
2023/11/19 04:05:56;;;;;;;0.73;0.73;;;9.20;99.90;;;;;;5057849;28;20574;-83
2023/11/19 04:08:23;;;;;;;1.17;0.70;;;9.20;99.90;;;;;;5057549;28;20226;-82
2023/11/19 04:10:50;;;;;;;2.30;1.17;;;9.20;99.90;;;;;;5057868;28;20206;-82
2023/11/19 04:13:19;;;;;;;1.13;0.80;;;9.30;99.90;;;;;;5057767;28;20206;-82
2023/11/19 04:15:46;;;;;;;1.43;1.33;;;9.40;99.90;;;;;;5057741;28;20199;-82
2023/11/19 04:18:13;;;;;;;1.10;1.00;;;9.40;99.90;;;;;;5057507;28;20249;-83
2023/11/19 04:20:41;;;;;;;1.77;1.37;;;9.40;99.90;;;;;;5057314;28;20203;-83
2023/11/19 04:23:08;;;;;;;3.73;1.33;;;9.50;99.90;;;;;;5071039;28;20233;-83
2023/11/19 04:25:36;;;;;;;1.50;1.40;;;9.40;99.90;;;;;;5077228;28;20293;-82
2023/11/19 04:28:03;;;;;;;1.70;1.47;;;9.50;99.90;;;;;;5076217;28;20232;-82
2023/11/19 04:30:32;;;;;;;1.97;1.67;;;9.60;99.90;;;;;;5075995;28;20301;-84
2023/11/19 04:32:59;;;;;;;1.80;1.70;;;9.60;99.90;;;;;;5076461;28;20198;-84
2023/11/19 04:35:26;;;;;;;2.70;1.90;;;9.60;99.90;;;;;;5076866;28;20209;-82
2023/11/19 04:37:57;;;;;;;1.70;1.60;;;9.60;99.90;;;;;;5076214;28;20230;-83
2023/11/19 04:40:24;;;;;;;1.93;1.83;;;9.70;99.90;;;;;;5067846;28;20238;-83
2023/11/19 04:42:50;;;;;;;2.30;2.10;;;9.70;99.90;;;;;;5056624;28;20207;-83
2023/11/19 04:45:17;;;;;;;4.10;2.00;;;9.70;99.90;;;;;;5056294;28;20211;-83
2023/11/19 04:47:46;;;;;;;5.90;2.90;;;9.70;99.90;;;;;;5076516;28;20222;-82
2023/11/19 04:50:12;;;;;;;2.40;2.00;;;9.80;99.90;;;;;;5076719;28;20228;-82
2023/11/19 04:52:42;;;;;;;2.33;2.13;;;9.80;99.90;;;;;;5075618;28;20206;-83
2023/11/19 04:55:12;;;;;;;4.13;2.70;;;9.80;99.90;;;;;;5063683;28;20603;-82
2023/11/19 04:57:39;;;;;;;3.07;2.37;;;9.90;99.90;;;;;;5058829;28;20698;-82
2023/11/19 05:00:07;;;;;;;4.03;3.07;;;9.90;99.90;;;;;;5077107;28;20646;-82
2023/11/19 05:02:34;;;;;;;6.60;2.70;;;9.90;99.90;;;;;;5076495;28;20263;-82
2023/11/19 05:05:03;;;;;;;4.13;2.80;;;10.10;99.90;;;;;;5076330;28;20229;-82
2023/11/19 05:07:30;;;;;;;3.50;2.70;;;9.90;99.90;;;;;;5075795;28;20233;-84
2023/11/19 05:09:57;;;;;;;4.53;2.70;;;9.90;99.90;;;;;;5076205;28;20206;-84
2023/11/19 05:12:24;;;;;;;5.97;2.83;;;10.00;99.90;;;;;;5075982;28;20297;-82
2023/11/19 05:14:51;;;;;;;3.00;2.70;;;9.90;99.90;;;;;;5072576;28;20284;-83
2023/11/19 05:17:19;;;;;;;4.53;3.07;;;9.90;99.90;;;;;;5074135;28;20218;-83
2023/11/19 05:19:46;;;;;;;3.17;2.87;;;10.00;99.90;;;;;;5073930;28;20198;-83
2023/11/19 05:22:14;;;;;;;6.40;3.20;;;10.00;99.90;;;;;;5073914;28;20257;-82
2023/11/19 05:24:41;;;;;;;3.83;2.80;;;10.00;99.90;;;;;;5063051;28;20690;-84
2023/11/19 05:27:08;;;;;;;5.50;3.23;;;10.00;99.90;;;;;;5053937;28;20219;-82
2023/11/19 05:29:35;;;;;;;4.37;3.07;;;10.00;99.90;;;;;;5056012;28;20191;-83
2023/11/19 05:32:02;;;;;;;7.03;4.23;;;10.00;99.90;;;;;;5075893;28;20604;-83
2023/11/19 05:34:29;;;;;;;4.83;3.33;;;10.00;99.90;;;;;;5076374;28;20293;-84
2023/11/19 05:36:57;;;;;;;7.77;2.83;;;10.00;99.90;;;;;;5075781;28;20663;-85
2023/11/19 05:39:25;;;;;;;4.77;3.17;;;10.00;99.90;;;;;;5066856;28;20239;-82
2023/11/19 05:41:52;;;;;;;3.77;2.90;;;10.10;99.90;;;;;;5067386;28;20225;-82
2023/11/19 05:44:19;;;;;;;5.17;2.77;;;10.10;99.90;;;;;;5075319;28;20686;-82
2023/11/19 05:46:46;;;;;;;4.93;2.87;;;10.20;99.90;;;;;;5063804;28;20231;-82
2023/11/19 05:49:13;;;;;;;4.07;2.97;;;10.20;99.90;;;;;;5054479;28;20203;-82
2023/11/19 05:51:40;;;;;;;7.20;2.97;;;10.30;99.90;;;;;;5063857;28;20202;-81
2023/11/19 05:54:08;;;;;;;4.03;3.20;;;10.40;99.90;;;;;;5062878;28;20266;-82
2023/11/19 05:56:39;;;;;;;4.43;2.90;;;10.40;99.90;;;;;;5069428;28;20709;-82
2023/11/19 05:59:09;;;;;;;6.43;3.27;;;10.40;99.90;;;;;;5072981;28;20194;-82
2023/11/19 06:01:36;;;;;;;3.70;3.27;;;10.40;99.90;;;;;;5065125;28;20271;-82
2023/11/19 06:04:03;;;;;;;4.23;3.17;;;10.50;99.90;;;;;;5064336;28;20957;-83
2023/11/19 06:06:31;;;;;;;5.30;3.20;;;10.40;99.90;;;;;;5063330;28;20226;-81
2023/11/19 06:08:57;;;;;;;4.70;3.30;;;10.40;99.90;;;;;;5072952;28;20214;-81
2023/11/19 06:11:26;;;;;;;7.37;3.60;;;10.30;99.90;;;;;;5057296;28;20225;-80
2023/11/19 06:13:55;;;;;;;4.53;3.27;;;10.30;99.90;;;;;;5071759;28;20206;-83
2023/11/19 06:16:22;;;;;;;4.73;3.60;;;10.20;99.90;;;;;;5069250;28;20563;-81
2023/11/19 06:18:49;;;;;;;7.70;3.83;;;10.20;99.90;;;;;;5070266;28;20244;-81
2023/11/19 06:21:17;;;;;;;7.03;4.27;;;10.20;99.90;;;;;;5076956;28;20479;-81
2023/11/19 06:23:43;;;;;;;8.80;4.50;;;10.20;99.90;;;;;;5068921;28;20226;-82
2023/11/19 06:26:10;;;;;;;10.93;5.47;;;10.40;99.90;;;;;;5077456;28;20209;-81
2023/11/19 06:28:37;;;;;;;16.80;6.60;;;10.30;99.90;;;;;;5076507;28;20285;-81
2023/11/19 06:31:06;;;;;;;11.13;5.70;;;10.40;99.90;;;;;;5075427;28;20676;-81
2023/11/19 06:33:33;;;;;;;13.40;5.93;;;10.60;99.90;;;;;;5075716;28;20198;-81
2023/11/19 06:36:01;;;;;;;14.17;5.93;;;10.80;99.90;;;;;;5075039;28;20670;-82
2023/11/19 06:38:27;;;;;;;10.53;5.17;;;11.00;99.90;;;;;;5077370;28;20241;-84
2023/11/19 06:40:54;;;;;;;14.23;6.20;;;11.10;99.90;;;;;;5064326;28;20210;-84
2023/11/19 06:43:21;;;;;;;13.20;5.93;;;11.20;99.90;;;;;;5055721;28;20262;-82
2023/11/19 06:45:48;;;;;;;12.93;6.13;;;11.20;99.90;;;;;;5076455;28;20221;-83
2023/11/19 06:48:16;;;;;;;22.23;5.70;;;11.30;99.90;;;;;;5070593;28;20305;-84
2023/11/19 06:50:43;;;;;;;14.30;5.63;;;11.40;99.90;;;;;;5076986;28;20422;-85
2023/11/19 06:53:11;;;;;;;11.67;4.87;;;11.40;99.90;;;;;;5067617;28;20260;-83
2023/11/19 06:55:38;;;;;;;10.97;4.87;;;11.50;1.00;;;;;;5075967;28;20210;-84
2023/11/19 06:58:05;;;;;;;15.00;4.30;;;11.50;1.00;;;;;;5071684;28;20600;-84
2023/11/19 07:00:32;;;;;;;12.27;4.20;;;11.50;1.00;;;;;;5067920;28;20669;-84
2023/11/19 07:02:59;;;;;;;11.90;4.47;;;11.60;1.00;;;;;;5077032;28;20205;-83
2023/11/19 07:05:28;;;;;;;16.80;4.97;;;11.50;99.90;;;;;;5076341;28;20251;-86
2023/11/19 07:07:55;;;;;;;15.33;5.20;;;11.60;59.60;;;;;;5068807;28;20226;-86
2023/11/19 07:10:22;;;;;;;15.87;5.73;;;11.50;1.00;;;;;;5066401;28;20214;-82
2023/11/19 07:12:50;;;;;;;14.70;4.63;;;11.50;1.00;;;;;;5071812;28;20258;-85
2023/11/19 07:15:18;;;;;;;12.73;4.30;;;11.50;99.90;;;;;;5069657;28;20194;-85
2023/11/19 07:17:45;;;;;;;14.03;4.63;;;11.50;99.90;;;;;;5068475;28;20729;-85
2023/11/19 07:20:13;;;;;;;15.20;4.37;;;11.50;99.90;;;;;;5057940;28;20191;-84
2023/11/19 07:22:45;;;;;;;17.10;5.87;;;11.50;99.90;;;;;;5067900;28;20215;-85
2023/11/19 07:25:13;;;;;;;11.97;3.97;;;11.50;1.00;;;;;;5074732;28;20218;-85
2023/11/19 07:27:40;;;;;;;15.47;4.90;;;11.50;1.00;;;;;;5076126;28;20230;-84
2023/11/19 07:30:08;;;;;;;15.47;4.93;;;11.40;1.00;;;;;;5076092;28;20191;-85
2023/11/19 07:32:35;;;;;;;15.50;5.40;;;11.40;1.00;;;;;;5075110;28;20554;-85
2023/11/19 07:35:02;;;;;;;16.67;5.03;;;11.30;1.00;;;;;;5073680;28;20289;-85
2023/11/19 07:37:29;;;;;;;16.47;4.80;;;11.50;1.00;;;;;;5077352;28;20714;-86
2023/11/19 07:39:57;;;;;;;10.93;4.60;;;11.50;99.90;;;;;;5062570;28;20226;-85
2023/11/19 07:42:24;;;;;;;17.83;4.73;;;11.60;99.90;;;;;;5070583;28;20214;-85
2023/11/19 07:44:50;;;;;;;17.53;4.73;;;11.80;1.00;;;;;;5073373;28;21588;-85
2023/11/19 07:47:17;;;;;;;14.90;5.20;;;11.80;99.90;;;;;;5063428;28;20221;-85
2023/11/19 07:49:44;;;;;;;13.97;4.63;;;11.80;94.30;;;;;;5062260;28;20307;-84
2023/11/19 07:52:12;;;;;;;14.07;4.37;;;11.80;99.90;;;;;;5055853;28;20210;-84
2023/11/19 07:54:38;;;;;;;15.20;4.30;;;11.80;1.00;;;;;;5071870;28;20297;-84
2023/11/19 07:57:07;;;;;;;19.30;4.87;;;11.80;1.00;;;;;;5072392;28;20301;-85
2023/11/19 07:59:34;;;;;;;17.00;4.37;;;11.90;1.00;;;;;;5072457;28;20727;-84
2023/11/19 08:02:00;;;;;;;14.60;4.03;;;11.90;1.00;;;;;;5071088;28;20198;-83
2023/11/19 08:04:27;;;;;;;13.50;5.07;;;11.80;1.00;;;;;;5073196;28;20218;-84
2023/11/19 08:06:54;;;;;;;16.30;4.90;;;11.80;1.00;;;;;;5071731;28;20226;-84
2023/11/19 08:09:21;;;;;;;17.47;4.57;;;12.10;99.90;;;;;;5070125;28;20639;-84
2023/11/19 08:11:48;;;;;;;9.77;3.90;;;12.10;99.90;;;;;;5064734;28;20280;-84
2023/11/19 08:14:16;;;;;;;15.67;4.10;;;12.30;75.60;;;;;;5073841;28;20272;-85
2023/11/19 08:16:45;;;;;;;15.57;4.00;;;12.40;1.00;;;;;;5075846;28;20225;-84
2023/11/19 08:19:12;;;;;;;16.30;4.50;;;12.30;1.00;;;;;;5059048;28;20203;-84
2023/11/19 08:21:41;;;;;;;16.40;4.40;;;12.30;1.00;;;;;;5065951;28;20269;-85
2023/11/19 08:24:09;;;;;;;14.17;4.13;;;12.20;1.00;;;;;;5071095;28;20640;-84
2023/11/19 08:26:36;;;;;;;16.57;4.67;;;12.10;1.00;;;;;;5072201;28;20595;-85
2023/11/19 08:29:04;;;;;;;18.23;4.30;;;12.10;1.00;;;;;;5067700;28;20205;-85
2023/11/19 08:31:32;;;;;;;15.83;4.70;;;11.90;1.00;;;;;;5073165;28;20580;-84
2023/11/19 08:33:59;;;;;;;18.30;4.87;;;12.00;99.90;;;;;;5076590;28;20255;-85
2023/11/19 08:36:27;;;;;;;18.17;4.43;;;11.90;99.90;;;;;;5077019;28;20210;-83
2023/11/19 08:38:54;;;;;;;20.63;4.07;;;11.90;99.90;;;;;;5075820;28;20210;-86
2023/11/19 08:41:22;;;;;;;14.60;4.20;;;11.70;1.00;;;;;;5073147;28;20198;-85
2023/11/19 08:43:50;;;;;;;15.60;4.07;;;11.70;99.90;;;;;;5075383;28;20202;-84
2023/11/19 08:46:17;;;;;;;15.97;3.67;;;11.90;99.90;;;;;;5067632;28;20230;-85
2023/11/19 08:48:45;;;;;;;16.50;4.30;;;11.90;99.90;;;;;;5055001;28;20234;-84
2023/11/19 08:51:13;;;;;;;14.47;4.43;;;11.90;99.90;;;;;;5057366;28;20629;-83
2023/11/19 08:53:40;;;;;;;15.63;3.93;;;12.00;99.90;;;;;;5074710;28;20252;-84
2023/11/19 08:56:08;;;;;;;19.27;5.47;;;12.20;99.90;;;;;;5074099;28;20290;-83
2023/11/19 08:58:35;;;;;;;18.57;5.63;;;12.20;99.90;;;;;;5072121;28;20447;-84
2023/11/19 09:01:03;;;;;;;19.33;4.90;;;12.10;99.90;;;;;;5064039;28;20255;-85
2023/11/19 09:03:33;;;;;;;16.27;4.53;;;12.00;99.90;;;;;;5075052;28;20585;-86
2023/11/19 09:06:03;;;;;;;20.13;4.33;;;12.00;99.90;;;;;;5073673;28;20237;-85
2023/11/19 09:08:30;;;;;;;14.43;4.00;;;11.80;1.00;;;;;;5075975;28;20222;-85
2023/11/19 09:10:58;;;;;;;15.60;4.43;;;11.80;1.00;;;;;;5069003;28;20308;-84
2023/11/19 09:13:24;;;;;;;17.43;5.07;;;11.80;1.00;;;;;;5076335;28;20228;-85
2023/11/19 09:15:51;;;;;;;22.00;4.77;;;11.70;1.00;;;;;;5074636;28;20561;-85
2023/11/19 09:18:18;;;;;;;17.93;5.27;;;11.70;1.00;;;;;;5076668;28;20602;-85
2023/11/19 09:20:45;;;;;;;17.13;4.00;;;11.70;1.00;;;;;;5076957;28;20237;-83
2023/11/19 09:23:14;;;;;;;24.00;5.40;;;11.80;1.00;;;;;;5063019;28;20236;-84
2023/11/19 09:25:41;;;;;;;18.50;5.33;;;11.80;1.00;;;;;;5077132;28;20313;-83
2023/11/19 09:28:10;;;;;;;20.97;4.27;;;11.80;1.00;;;;;;5075761;28;20681;-82
2023/11/19 09:30:37;;;;;;;20.23;4.77;;;11.80;1.00;;;;;;5065104;28;20666;-82
2023/11/19 09:33:04;;;;;;;20.57;5.70;;;11.70;1.00;;;;;;5076856;28;20655;-83
2023/11/19 09:35:32;;;;;;;17.53;4.13;;;11.80;1.00;;;;;;5077016;28;20194;-84
2023/11/19 09:37:59;;;;;;;16.53;3.80;;;11.70;1.00;;;;;;5064620;28;20596;-83
2023/11/19 09:40:28;;;;;;;21.27;4.53;;;11.80;99.90;;;;;;5072284;28;20214;-85
2023/11/19 09:42:55;;;;;;;21.43;4.50;;;12.00;99.90;;;;;;5055961;28;20206;-83
2023/11/19 09:45:22;;;;;;;17.40;4.33;;;12.10;99.90;;;;;;5071828;28;20226;-84
2023/11/19 09:47:53;;;;;;;17.83;4.27;;;12.20;99.90;;;;;;5076746;28;20236;-84
2023/11/19 09:50:21;;;;;;;20.07;5.53;;;12.30;99.90;;;;;;5060596;28;20210;-85
2023/11/19 09:52:49;;;;;;;22.20;4.17;;;12.20;99.90;;;;;;5063959;28;20277;-86
2023/11/19 09:55:16;;;;;;;15.90;4.37;;;12.10;99.90;;;;;;5070237;28;20228;-84
2023/11/19 09:57:45;;;;;;;22.10;4.73;;;12.20;99.90;;;;;;5066158;28;20242;-83
2023/11/19 10:00:15;;;;;;;19.87;4.80;;;12.30;99.90;;;;;;5066498;28;20290;-84
2023/11/19 10:02:45;;;;;;;21.23;5.23;;;12.30;97.70;;;;;;5078565;28;20247;-85
2023/11/19 10:05:14;;;;;;;20.53;4.37;;;12.40;86.10;;;;;;5078968;28;20214;-83
2023/11/19 10:07:41;;;;;;;20.80;4.13;;;12.30;34.70;;;;;;5077725;28;20218;-82
2023/11/19 10:10:13;;;;;;;18.57;4.50;;;12.20;4.50;;;;;;5073706;28;20210;-83
2023/11/19 10:12:41;;;;;;;20.33;4.63;;;12.30;1.00;;;;;;5080613;28;20217;-84
2023/11/19 10:15:20;;;;;;;20.60;4.80;;;12.20;1.00;;;;;;5077556;28;20205;-84
2023/11/19 10:17:47;;;;;;;14.13;3.90;;;12.50;1.00;;;;;;5081029;28;20305;-86
2023/11/19 10:20:14;;;;;;;17.67;3.90;;;12.50;1.00;;;;;;5070034;28;20297;-84
2023/11/19 10:22:41;;;;;;;16.93;3.90;;;12.50;1.00;;;;;;5074755;28;20211;-85
2023/11/19 10:25:23;;;;;;;21.50;4.30;;;12.60;1.00;;;;;;5075107;28;20706;-86
2023/11/19 10:27:50;;;;;;;18.80;4.43;;;12.60;1.00;;;;;;5071851;28;20214;-85
2023/11/19 10:30:22;;;;;;;19.17;4.00;;;12.50;1.00;;;;;;5080669;28;20209;-84
2023/11/19 10:33:05;;;;;;;16.30;3.60;;;12.30;1.00;;;;;;5061005;28;20206;-84
2023/11/19 10:35:33;;;;;;;15.20;4.07;;;12.20;1.00;;;;;;5060083;28;20207;-84
2023/11/19 10:38:01;;;;;;;13.97;3.67;;;12.20;1.00;;;;;;5081052;28;20230;-84
2023/11/19 10:40:41;;;;;;;15.80;3.80;;;12.10;1.00;;;;;;5073237;28;20206;-84
2023/11/19 10:43:09;;;;;;;16.90;5.20;;;11.90;1.00;;;;;;5080729;28;20210;-84
2023/11/19 10:45:38;;;;;;;11.07;4.03;;;11.90;1.00;;;;;;5081732;28;20222;-84
2023/11/19 10:48:06;;;;;;;18.27;3.70;;;11.90;1.00;;;;;;5080291;28;20249;-83
2023/11/19 10:50:35;;;;;;;14.50;3.80;;;11.80;1.00;;;;;;5063825;28;20231;-84
2023/11/19 10:53:03;;;;;;;18.10;4.90;;;11.80;1.00;;;;;;5060888;28;20203;-84
2023/11/19 10:55:31;;;;;;;15.47;4.70;;;11.80;1.00;;;;;;5077253;28;20210;-84
2023/11/19 10:58:01;;;;;;;16.87;3.93;;;11.70;69.50;;;;;;5067169;28;20249;-85
2023/11/19 11:00:31;;;;;;;20.20;4.23;;;11.80;14.00;;;;;;5072794;28;20206;-86
2023/11/19 11:03:02;;;;;;;19.37;5.03;;;11.90;1.00;;;;;;5073943;28;20198;-84
2023/11/19 11:05:33;;;;;;;13.50;3.87;;;12.00;1.00;;;;;;5077373;28;20209;-85
2023/11/19 11:08:03;;;;;;;16.03;4.00;;;12.00;1.00;;;;;;5080451;28;20575;-86
2023/11/19 11:10:35;;;;;;;15.73;4.70;;;12.20;1.00;;;;;;5079178;28;20679;-84
2023/11/19 11:13:04;;;;;;;21.27;4.67;;;12.30;1.00;;;;;;5067665;28;20841;-83
2023/11/19 11:15:32;;;;;;;19.00;4.87;;;12.40;1.00;;;;;;5068096;28;20209;-85
2023/11/19 11:18:02;;;;;;;23.80;5.53;;;12.50;1.00;;;;;;5076151;28;20257;-85
2023/11/19 11:20:33;;;;;;;18.77;4.80;;;12.40;1.00;;;;;;5073722;28;20252;-85
2023/11/19 11:23:33;;;;;;;16.80;4.60;;;12.30;1.00;;;;;;5080796;28;20560;-85
2023/11/19 11:26:19;;;;;;;19.57;4.07;;;12.30;1.00;;;;;;5081187;28;20317;-85
2023/11/19 11:28:57;;;;;;;22.73;4.90;;;12.40;1.00;;;;;;5069991;28;20213;-84
2023/11/19 11:31:49;;;;;;;17.50;4.40;;;12.50;1.00;;;;;;5069355;28;20236;-84
2023/11/19 11:34:34;;;;;;;16.13;4.50;;;12.50;1.00;;;;;;5072650;28;20666;-83
2023/11/19 11:37:14;;;;;;;19.93;5.20;;;12.60;1.00;;;;;;5071617;28;20246;-83
2023/11/19 11:39:41;;;;;;;17.33;4.33;;;12.80;1.00;;;;;;5073566;28;20210;-84
2023/11/19 11:42:36;;;;;;;17.60;5.60;;;12.90;1.00;;;;;;5075844;28;20281;-84
2023/11/19 11:45:07;;;;;;;17.10;4.70;;;13.00;1.00;;;;;;5058377;28;20214;-85
2023/11/19 11:48:10;;;;;;;24.17;4.80;;;13.00;1.00;;;;;;5080972;28;20666;-86
2023/11/19 11:50:50;;;;;;;21.03;4.93;;;13.50;1.00;;;;;;5080505;28;20202;-85
2023/11/19 11:53:18;;;;;;;16.33;4.23;;;13.90;1.00;;;;;;5076701;28;20208;-83
2023/11/19 11:55:58;;;;;;;16.77;4.60;;;14.30;1.00;;;;;;5078414;28;20198;-83
2023/11/19 11:58:31;;;;;;;17.15;4.38;;;13.80;1.00;;;;;;5078782;28;20254;-84
2023/11/19 12:01:00;;;;;;;22.80;4.85;;;13.80;1.00;;;;;;5078761;28;20244;-85
2023/11/19 12:03:29;;;;;;;22.60;4.93;;;13.80;1.00;;;;;;5078610;28;20197;-84
2023/11/19 12:05:58;;;;;;;18.07;4.77;;;14.40;99.90;;;;;;5078404;28;20278;-84
2023/11/19 12:08:31;;;;;;;21.87;5.20;;;13.70;99.90;;;;;;5078130;28;20233;-85
2023/11/19 12:10:59;;;;;;;21.63;4.90;;;13.60;99.90;;;;;;5077696;28;20224;-84
2023/11/19 12:13:45;;;;;;;15.80;4.23;;;13.50;99.90;;;;;;5077996;28;20191;-83
2023/11/19 12:16:15;;;;;;;20.55;4.55;;;13.30;99.90;;;;;;5078329;28;20217;-85
2023/11/19 12:18:42;;;;;;;25.07;5.30;;;13.40;99.90;;;;;;5075484;28;20221;-84
2023/11/19 12:21:11;;;;;;;24.87;5.60;;;13.80;99.90;;;;;;5077420;28;20251;-83
2023/11/19 12:23:47;;;;;;;20.52;4.65;;;13.80;99.90;;;;;;5059755;28;20558;-81
2023/11/19 12:26:40;;;;;;;19.90;4.50;;;13.80;99.90;;;;;;5057791;28;20238;-83
2023/11/19 12:29:07;;;;;;;23.55;4.57;;;14.30;99.90;;;;;;5060034;28;20203;-82
2023/11/19 12:31:36;;;;;;;25.63;4.85;;;14.50;99.90;;;;;;5058919;28;20203;-81
2023/11/19 12:34:11;;;;;;;17.98;4.70;;;13.90;99.90;;;;;;5058108;28;20209;-82
2023/11/19 12:36:41;;;;;;;23.52;4.25;;;14.00;99.90;;;;;;5068517;28;20224;-82
2023/11/19 12:39:09;;;;;;;23.23;4.35;;;13.50;99.90;;;;;;5079223;28;20190;-83
2023/11/19 12:41:53;;;;;;;16.70;4.10;;;13.40;99.90;;;;;;5076925;28;20218;-84
2023/11/19 12:44:20;;;;;;;19.20;4.00;;;13.30;99.90;;;;;;5078082;28;20240;-83
2023/11/19 12:46:47;;;;;;;22.05;4.53;;;13.20;99.90;;;;;;5073980;28;20305;-83
2023/11/19 12:49:14;;;;;;;23.23;4.68;;;13.20;99.90;;;;;;5071706;28;20294;-83
2023/11/19 12:51:42;;;;;;;21.27;4.43;;;13.00;99.90;;;;;;5066049;28;20207;-83
2023/11/19 12:54:10;;;;;;;19.97;4.80;;;13.00;99.90;;;;;;5071137;28;20202;-85
2023/11/19 12:56:37;;;;;;;20.33;4.57;;;12.90;99.90;;;;;;5076899;28;20218;-84
2023/11/19 12:59:13;;;;;;;19.13;4.53;;;12.80;99.90;;;;;;5063376;28;20266;-85